Startpagina
METAR-TAF:

METAR-TAF

Vliegvelden :

Dallas / Fort Worth, Texas, Verenigde Staten

Dallas/Fort Worth International Airport

breedte: 32-53-49N, lengte: 097-01-19W, hoogte: 183 m

Actueel weer

Dit bericht is 54 minuten geleden gemaakt, om 23:53 UTC
Wind 9 kt uit het zuiden
Temperatuur 36°C
Vochtigheid 37%
Druk 1014 hPa
Zicht: 16.1 km
Weinig wolken op 7000 ft
Gebroken wolken op 30000 ft

METAR: KDFW 262353Z 17009KT 10SM FEW070 BKN300 36/19 A2994 RMK AO2 SLP128 T03560189 10367 20339 56016

Tijdstip: 19:47 (00:47 UTC)

Verwachting

Dit bericht is 1 uur en het 27 minuten geleden gemaakt, om 23:20 UTC
Verwachting geldig van 27 om 00 UTC tot 28 om 06 UTC
Wind 11 kt uit het zuiden
Zicht: 10 km
Weinig wolken op 6000 ft

TAF: KDFW 262320Z 2700/2806 19011KT P6SM FEW060

Waarnemingen en weersverwachtingen van meer dan 4000 vliegvelden (METAR en TAF).

De beschikbare stations zijn de gele en rode punten op de kaart.

Ga met uw muis naar het station om de naam te zien.

Klik dan om waarnemingen en weersverwachtingen te zien.

kaart wijzigen: klik op de groene knoppen met een zwart kruis om in te zoomen, op de groene knop met een streepje om uit te zoomen of op de groene pijlen voor aangrenzende kaarten.


METAR-TAF: